Terminal Aerodrome Forecast
Issued by NWS

Home | Current Version | Previous Version | Text Only | Print | Product List | Glossary On
Versions: 1 2 3 4 5 6 7 8 9 10 11 12 13
000
FTUS46 KLOX 281100
TAFPRB
TAF
KPRB 281124Z 2812/2912 VRB03KT P6SM SCT100 BKN150
     FM282000 21015G22KT P6SM BKN150
     FM290300 21012KT P6SM SCT150
     FM290700 VRB03KT P6SM SCT150=

USA.gov is the U.S. government's official web portal to all federal, state and local government web resources and services.